sensor_id;sensor_type;location;lat;lon;timestamp;P1;durP1;ratioP1;P2;durP2;ratioP2
39176;SDS011;24904;52.208;21.192;2023-05-02T00:03:50;17.00;;;6.80;;
39176;SDS011;24904;52.208;21.192;2023-05-02T00:08:53;13.00;;;5.60;;
39176;SDS011;24904;52.208;21.192;2023-05-02T00:13:56;10.50;;;4.90;;
39176;SDS011;24904;52.208;21.192;2023-05-02T00:18:59;10.90;;;5.40;;
39176;SDS011;24904;52.208;21.192;2023-05-02T00:24:04;11.50;;;5.10;;
39176;SDS011;24904;52.208;21.192;2023-05-02T00:29:07;16.20;;;5.70;;
39176;SDS011;24904;52.208;21.192;2023-05-02T00:34:10;10.90;;;4.70;;
39176;SDS011;24904;52.208;21.192;2023-05-02T00:39:13;9.20;;;4.60;;
39176;SDS011;24904;52.208;21.192;2023-05-02T00:44:16;9.60;;;4.50;;
39176;SDS011;24904;52.208;21.192;2023-05-02T00:49:19;8.60;;;4.50;;
39176;SDS011;24904;52.208;21.192;2023-05-02T00:54:22;11.40;;;6.50;;
39176;SDS011;24904;52.208;21.192;2023-05-02T00:59:25;11.20;;;4.90;;
39176;SDS011;24904;52.208;21.192;2023-05-02T01:04:30;10.50;;;4.80;;
39176;SDS011;24904;52.208;21.192;2023-05-02T01:09:47;11.30;;;4.60;;
39176;SDS011;24904;52.208;21.192;2023-05-02T01:15:01;10.00;;;4.80;;
39176;SDS011;24904;52.208;21.192;2023-05-02T01:20:12;10.20;;;4.60;;
39176;SDS011;24904;52.208;21.192;2023-05-02T01:25:24;8.20;;;4.00;;
39176;SDS011;24904;52.208;21.192;2023-05-02T01:30:35;11.50;;;4.90;;
39176;SDS011;24904;52.208;21.192;2023-05-02T01:35:43;11.30;;;4.50;;
39176;SDS011;24904;52.208;21.192;2023-05-02T01:40:51;9.00;;;4.10;;
39176;SDS011;24904;52.208;21.192;2023-05-02T01:45:56;10.20;;;5.00;;
39176;SDS011;24904;52.208;21.192;2023-05-02T01:51:03;10.90;;;4.30;;
39176;SDS011;24904;52.208;21.192;2023-05-02T01:56:09;11.80;;;4.10;;
39176;SDS011;24904;52.208;21.192;2023-05-02T02:09:19;9.20;;;5.00;;
39176;SDS011;24904;52.208;21.192;2023-05-02T02:14:24;18.00;;;4.80;;
39176;SDS011;24904;52.208;21.192;2023-05-02T02:19:29;9.70;;;4.60;;
39176;SDS011;24904;52.208;21.192;2023-05-02T02:24:32;11.10;;;4.40;;
39176;SDS011;24904;52.208;21.192;2023-05-02T02:29:37;8.40;;;3.90;;
39176;SDS011;24904;52.208;21.192;2023-05-02T02:34:40;14.00;;;4.30;;
39176;SDS011;24904;52.208;21.192;2023-05-02T02:39:45;9.80;;;4.40;;
39176;SDS011;24904;52.208;21.192;2023-05-02T02:44:58;8.80;;;4.10;;
39176;SDS011;24904;52.208;21.192;2023-05-02T02:50:10;16.80;;;5.40;;
39176;SDS011;24904;52.208;21.192;2023-05-02T02:55:26;7.10;;;3.90;;
39176;SDS011;24904;52.208;21.192;2023-05-02T03:00:37;9.40;;;4.40;;
39176;SDS011;24904;52.208;21.192;2023-05-02T03:05:41;11.70;;;4.10;;
39176;SDS011;24904;52.208;21.192;2023-05-02T03:10:45;12.50;;;5.00;;
39176;SDS011;24904;52.208;21.192;2023-05-02T03:21:23;10.20;;;4.10;;
39176;SDS011;24904;52.208;21.192;2023-05-02T03:26:26;11.30;;;4.40;;
39176;SDS011;24904;52.208;21.192;2023-05-02T03:31:31;11.40;;;4.10;;
39176;SDS011;24904;52.208;21.192;2023-05-02T03:36:34;11.00;;;5.00;;
39176;SDS011;24904;52.208;21.192;2023-05-02T03:41:38;7.80;;;3.80;;
39176;SDS011;24904;52.208;21.192;2023-05-02T03:46:43;13.60;;;4.30;;
39176;SDS011;24904;52.208;21.192;2023-05-02T03:51:47;11.50;;;3.90;;
39176;SDS011;24904;52.208;21.192;2023-05-02T03:56:53;9.60;;;4.70;;
39176;SDS011;24904;52.208;21.192;2023-05-02T04:02:01;8.20;;;3.90;;
39176;SDS011;24904;52.208;21.192;2023-05-02T04:07:17;12.30;;;5.00;;
39176;SDS011;24904;52.208;21.192;2023-05-02T04:12:31;12.20;;;5.40;;
39176;SDS011;24904;52.208;21.192;2023-05-02T04:17:35;11.60;;;4.30;;
39176;SDS011;24904;52.208;21.192;2023-05-02T04:22:40;11.50;;;5.00;;
39176;SDS011;24904;52.208;21.192;2023-05-02T04:27:43;9.50;;;4.70;;
39176;SDS011;24904;52.208;21.192;2023-05-02T04:32:49;8.50;;;4.40;;
39176;SDS011;24904;52.208;21.192;2023-05-02T04:37:53;8.20;;;4.40;;
39176;SDS011;24904;52.208;21.192;2023-05-02T04:42:58;11.80;;;4.60;;
39176;SDS011;24904;52.208;21.192;2023-05-02T04:48:08;11.60;;;4.60;;
39176;SDS011;24904;52.208;21.192;2023-05-02T04:53:12;9.30;;;3.90;;
39176;SDS011;24904;52.208;21.192;2023-05-02T04:58:15;11.90;;;5.00;;
39176;SDS011;24904;52.208;21.192;2023-05-02T05:03:22;16.10;;;5.00;;
39176;SDS011;24904;52.208;21.192;2023-05-02T05:08:26;8.80;;;4.50;;
39176;SDS011;24904;52.208;21.192;2023-05-02T05:13:30;9.00;;;4.40;;
39176;SDS011;24904;52.208;21.192;2023-05-02T05:18:33;9.90;;;4.60;;
39176;SDS011;24904;52.208;21.192;2023-05-02T05:23:41;12.40;;;5.40;;
39176;SDS011;24904;52.208;21.192;2023-05-02T05:28:49;11.00;;;4.90;;
39176;SDS011;24904;52.208;21.192;2023-05-02T05:33:54;14.00;;;4.70;;
39176;SDS011;24904;52.208;21.192;2023-05-02T05:38:57;11.00;;;4.50;;
39176;SDS011;24904;52.208;21.192;2023-05-02T05:44:02;14.30;;;5.10;;
39176;SDS011;24904;52.208;21.192;2023-05-02T05:49:06;11.80;;;4.80;;
39176;SDS011;24904;52.208;21.192;2023-05-02T05:54:10;9.40;;;4.90;;
39176;SDS011;24904;52.208;21.192;2023-05-02T05:59:13;11.30;;;4.50;;
39176;SDS011;24904;52.208;21.192;2023-05-02T06:04:17;9.70;;;5.20;;
39176;SDS011;24904;52.208;21.192;2023-05-02T06:09:23;10.20;;;4.70;;
39176;SDS011;24904;52.208;21.192;2023-05-02T06:14:27;8.70;;;4.60;;
39176;SDS011;24904;52.208;21.192;2023-05-02T06:19:30;9.20;;;4.10;;
39176;SDS011;24904;52.208;21.192;2023-05-02T06:24:33;7.50;;;4.60;;
39176;SDS011;24904;52.208;21.192;2023-05-02T06:29:37;10.70;;;4.20;;
39176;SDS011;24904;52.208;21.192;2023-05-02T06:34:40;10.40;;;4.70;;
39176;SDS011;24904;52.208;21.192;2023-05-02T06:39:43;11.10;;;5.00;;
39176;SDS011;24904;52.208;21.192;2023-05-02T06:44:46;10.20;;;3.80;;
39176;SDS011;24904;52.208;21.192;2023-05-02T06:49:51;9.70;;;4.40;;
39176;SDS011;24904;52.208;21.192;2023-05-02T06:54:54;9.70;;;4.20;;
39176;SDS011;24904;52.208;21.192;2023-05-02T06:59:57;9.00;;;4.00;;
39176;SDS011;24904;52.208;21.192;2023-05-02T07:05:00;6.20;;;3.80;;
39176;SDS011;24904;52.208;21.192;2023-05-02T07:10:03;9.80;;;4.20;;
39176;SDS011;24904;52.208;21.192;2023-05-02T07:15:08;10.90;;;4.10;;
39176;SDS011;24904;52.208;21.192;2023-05-02T07:20:13;9.30;;;3.80;;
39176;SDS011;24904;52.208;21.192;2023-05-02T07:25:17;9.60;;;3.90;;
39176;SDS011;24904;52.208;21.192;2023-05-02T07:30:20;7.70;;;3.90;;
39176;SDS011;24904;52.208;21.192;2023-05-02T07:35:23;11.50;;;4.20;;
39176;SDS011;24904;52.208;21.192;2023-05-02T07:40:26;8.30;;;3.20;;
39176;SDS011;24904;52.208;21.192;2023-05-02T07:45:29;6.10;;;3.20;;
39176;SDS011;24904;52.208;21.192;2023-05-02T07:50:32;5.20;;;2.70;;
39176;SDS011;24904;52.208;21.192;2023-05-02T07:55:35;8.40;;;3.20;;
39176;SDS011;24904;52.208;21.192;2023-05-02T08:00:38;8.60;;;3.00;;
39176;SDS011;24904;52.208;21.192;2023-05-02T08:05:41;4.70;;;2.50;;
39176;SDS011;24904;52.208;21.192;2023-05-02T08:10:45;7.50;;;3.00;;
39176;SDS011;24904;52.208;21.192;2023-05-02T08:15:48;11.40;;;3.00;;
39176;SDS011;24904;52.208;21.192;2023-05-02T08:20:51;8.60;;;2.40;;
39176;SDS011;24904;52.208;21.192;2023-05-02T08:25:56;5.00;;;2.80;;
39176;SDS011;24904;52.208;21.192;2023-05-02T08:30:59;6.60;;;2.60;;
39176;SDS011;24904;52.208;21.192;2023-05-02T08:36:09;9.90;;;3.10;;
39176;SDS011;24904;52.208;21.192;2023-05-02T08:41:14;4.10;;;2.40;;
39176;SDS011;24904;52.208;21.192;2023-05-02T08:46:19;5.60;;;2.60;;
39176;SDS011;24904;52.208;21.192;2023-05-02T08:51:24;6.70;;;3.10;;
39176;SDS011;24904;52.208;21.192;2023-05-02T08:56:28;7.60;;;3.20;;
39176;SDS011;24904;52.208;21.192;2023-05-02T09:01:33;7.70;;;2.80;;
39176;SDS011;24904;52.208;21.192;2023-05-02T09:06:38;5.50;;;2.80;;
39176;SDS011;24904;52.208;21.192;2023-05-02T09:11:41;7.00;;;2.70;;
39176;SDS011;24904;52.208;21.192;2023-05-02T09:16:47;8.30;;;3.10;;
39176;SDS011;24904;52.208;21.192;2023-05-02T09:21:50;5.70;;;3.60;;
39176;SDS011;24904;52.208;21.192;2023-05-02T09:27:00;4.80;;;2.90;;
39176;SDS011;24904;52.208;21.192;2023-05-02T09:32:04;10.80;;;3.40;;
39176;SDS011;24904;52.208;21.192;2023-05-02T09:37:07;8.80;;;2.90;;
39176;SDS011;24904;52.208;21.192;2023-05-02T09:42:11;5.50;;;2.90;;
39176;SDS011;24904;52.208;21.192;2023-05-02T09:47:24;7.40;;;3.30;;
39176;SDS011;24904;52.208;21.192;2023-05-02T09:52:27;7.40;;;3.20;;
39176;SDS011;24904;52.208;21.192;2023-05-02T10:02:50;8.60;;;3.50;;
39176;SDS011;24904;52.208;21.192;2023-05-02T10:07:53;5.30;;;3.20;;
39176;SDS011;24904;52.208;21.192;2023-05-02T10:12:56;7.20;;;3.10;;
39176;SDS011;24904;52.208;21.192;2023-05-02T10:18:01;4.90;;;3.30;;
39176;SDS011;24904;52.208;21.192;2023-05-02T10:23:10;10.50;;;4.90;;
39176;SDS011;24904;52.208;21.192;2023-05-02T10:28:15;7.10;;;4.10;;
39176;SDS011;24904;52.208;21.192;2023-05-02T10:33:18;8.10;;;4.60;;
39176;SDS011;24904;52.208;21.192;2023-05-02T10:38:22;7.20;;;4.00;;
39176;SDS011;24904;52.208;21.192;2023-05-02T10:43:27;8.10;;;4.90;;
39176;SDS011;24904;52.208;21.192;2023-05-02T10:48:31;7.10;;;4.10;;
39176;SDS011;24904;52.208;21.192;2023-05-02T10:53:38;8.50;;;4.80;;
39176;SDS011;24904;52.208;21.192;2023-05-02T10:58:44;10.60;;;5.10;;
39176;SDS011;24904;52.208;21.192;2023-05-02T11:03:55;13.30;;;5.90;;
39176;SDS011;24904;52.208;21.192;2023-05-02T11:14:43;17.00;;;9.20;;
39176;SDS011;24904;52.208;21.192;2023-05-02T11:25:33;16.30;;;8.70;;
39176;SDS011;24904;52.208;21.192;2023-05-02T11:30:38;13.40;;;8.30;;
39176;SDS011;24904;52.208;21.192;2023-05-02T11:35:44;10.00;;;5.60;;
39176;SDS011;24904;52.208;21.192;2023-05-02T11:40:50;15.40;;;5.60;;
39176;SDS011;24904;52.208;21.192;2023-05-02T11:45:55;12.70;;;5.90;;
39176;SDS011;24904;52.208;21.192;2023-05-02T11:51:00;14.10;;;7.30;;
39176;SDS011;24904;52.208;21.192;2023-05-02T11:56:05;9.50;;;6.40;;
39176;SDS011;24904;52.208;21.192;2023-05-02T12:01:12;12.20;;;7.10;;
39176;SDS011;24904;52.208;21.192;2023-05-02T12:06:16;12.10;;;7.00;;
39176;SDS011;24904;52.208;21.192;2023-05-02T12:11:19;8.30;;;5.80;;
39176;SDS011;24904;52.208;21.192;2023-05-02T12:16:23;8.50;;;6.00;;
39176;SDS011;24904;52.208;21.192;2023-05-02T12:21:27;10.20;;;5.70;;
39176;SDS011;24904;52.208;21.192;2023-05-02T12:26:33;9.80;;;6.20;;
39176;SDS011;24904;52.208;21.192;2023-05-02T12:31:36;12.30;;;6.70;;
39176;SDS011;24904;52.208;21.192;2023-05-02T12:36:43;9.50;;;6.60;;
39176;SDS011;24904;52.208;21.192;2023-05-02T12:41:46;15.10;;;8.50;;
39176;SDS011;24904;52.208;21.192;2023-05-02T12:46:58;14.80;;;7.20;;
39176;SDS011;24904;52.208;21.192;2023-05-02T12:52:01;11.20;;;7.30;;
39176;SDS011;24904;52.208;21.192;2023-05-02T12:57:04;13.80;;;8.30;;
39176;SDS011;24904;52.208;21.192;2023-05-02T13:02:08;11.80;;;8.50;;
39176;SDS011;24904;52.208;21.192;2023-05-02T13:07:13;13.40;;;8.40;;
39176;SDS011;24904;52.208;21.192;2023-05-02T13:12:18;13.00;;;8.90;;
39176;SDS011;24904;52.208;21.192;2023-05-02T13:17:23;10.20;;;7.50;;
39176;SDS011;24904;52.208;21.192;2023-05-02T13:22:27;10.70;;;6.40;;
39176;SDS011;24904;52.208;21.192;2023-05-02T13:27:32;8.90;;;6.50;;
39176;SDS011;24904;52.208;21.192;2023-05-02T13:32:37;11.70;;;5.80;;
39176;SDS011;24904;52.208;21.192;2023-05-02T13:37:42;7.70;;;5.20;;
39176;SDS011;24904;52.208;21.192;2023-05-02T13:42:47;7.10;;;3.70;;
39176;SDS011;24904;52.208;21.192;2023-05-02T13:47:51;7.10;;;3.80;;
39176;SDS011;24904;52.208;21.192;2023-05-02T13:52:55;7.30;;;4.30;;
39176;SDS011;24904;52.208;21.192;2023-05-02T13:58:00;10.40;;;5.20;;
39176;SDS011;24904;52.208;21.192;2023-05-02T14:11:19;7.20;;;4.50;;
39176;SDS011;24904;52.208;21.192;2023-05-02T14:16:22;7.60;;;4.50;;
39176;SDS011;24904;52.208;21.192;2023-05-02T14:21:25;8.10;;;4.50;;
39176;SDS011;24904;52.208;21.192;2023-05-02T14:26:28;7.30;;;4.20;;
39176;SDS011;24904;52.208;21.192;2023-05-02T14:31:31;6.90;;;3.90;;
39176;SDS011;24904;52.208;21.192;2023-05-02T14:36:34;7.20;;;3.90;;
39176;SDS011;24904;52.208;21.192;2023-05-02T14:41:37;6.40;;;3.70;;
39176;SDS011;24904;52.208;21.192;2023-05-02T14:46:40;8.20;;;3.90;;
39176;SDS011;24904;52.208;21.192;2023-05-02T14:51:43;12.30;;;4.90;;
39176;SDS011;24904;52.208;21.192;2023-05-02T14:56:47;11.30;;;4.00;;
39176;SDS011;24904;52.208;21.192;2023-05-02T15:01:52;5.90;;;3.90;;
39176;SDS011;24904;52.208;21.192;2023-05-02T15:06:56;10.40;;;4.50;;
39176;SDS011;24904;52.208;21.192;2023-05-02T15:12:00;8.70;;;4.60;;
39176;SDS011;24904;52.208;21.192;2023-05-02T15:17:03;8.60;;;4.90;;
39176;SDS011;24904;52.208;21.192;2023-05-02T15:22:06;9.40;;;5.00;;
39176;SDS011;24904;52.208;21.192;2023-05-02T15:27:09;9.70;;;4.80;;
39176;SDS011;24904;52.208;21.192;2023-05-02T15:32:12;7.10;;;3.90;;
39176;SDS011;24904;52.208;21.192;2023-05-02T15:37:15;9.90;;;4.40;;
39176;SDS011;24904;52.208;21.192;2023-05-02T15:42:18;7.50;;;4.40;;
39176;SDS011;24904;52.208;21.192;2023-05-02T15:47:22;10.30;;;4.70;;
39176;SDS011;24904;52.208;21.192;2023-05-02T15:52:25;7.40;;;4.70;;
39176;SDS011;24904;52.208;21.192;2023-05-02T15:57:28;8.80;;;3.60;;
39176;SDS011;24904;52.208;21.192;2023-05-02T16:02:31;9.00;;;4.50;;
39176;SDS011;24904;52.208;21.192;2023-05-02T16:07:34;10.20;;;4.60;;
39176;SDS011;24904;52.208;21.192;2023-05-02T16:12:38;10.70;;;4.60;;
39176;SDS011;24904;52.208;21.192;2023-05-02T16:17:41;9.40;;;4.30;;
39176;SDS011;24904;52.208;21.192;2023-05-02T16:22:45;7.80;;;3.80;;
39176;SDS011;24904;52.208;21.192;2023-05-02T16:27:48;11.50;;;4.40;;
39176;SDS011;24904;52.208;21.192;2023-05-02T16:32:51;7.30;;;4.70;;
39176;SDS011;24904;52.208;21.192;2023-05-02T16:37:54;8.60;;;4.60;;
39176;SDS011;24904;52.208;21.192;2023-05-02T16:42:58;12.00;;;4.60;;
39176;SDS011;24904;52.208;21.192;2023-05-02T16:48:01;13.00;;;4.10;;
39176;SDS011;24904;52.208;21.192;2023-05-02T16:53:04;7.50;;;4.40;;
39176;SDS011;24904;52.208;21.192;2023-05-02T16:58:08;8.10;;;4.20;;
39176;SDS011;24904;52.208;21.192;2023-05-02T17:03:11;9.70;;;4.60;;
39176;SDS011;24904;52.208;21.192;2023-05-02T17:08:14;12.50;;;5.10;;
39176;SDS011;24904;52.208;21.192;2023-05-02T17:13:17;9.00;;;4.50;;
39176;SDS011;24904;52.208;21.192;2023-05-02T17:18:20;12.10;;;4.70;;
39176;SDS011;24904;52.208;21.192;2023-05-02T17:23:24;11.40;;;6.20;;
39176;SDS011;24904;52.208;21.192;2023-05-02T17:28:28;12.10;;;5.30;;
39176;SDS011;24904;52.208;21.192;2023-05-02T17:33:31;9.50;;;5.80;;
39176;SDS011;24904;52.208;21.192;2023-05-02T17:38:35;13.30;;;5.90;;
39176;SDS011;24904;52.208;21.192;2023-05-02T17:43:38;8.70;;;6.00;;
39176;SDS011;24904;52.208;21.192;2023-05-02T17:48:43;12.60;;;8.30;;
39176;SDS011;24904;52.208;21.192;2023-05-02T17:53:46;12.00;;;7.20;;
39176;SDS011;24904;52.208;21.192;2023-05-02T17:58:52;17.70;;;7.90;;
39176;SDS011;24904;52.208;21.192;2023-05-02T18:03:56;15.10;;;6.40;;
39176;SDS011;24904;52.208;21.192;2023-05-02T18:08:59;11.80;;;6.80;;
39176;SDS011;24904;52.208;21.192;2023-05-02T18:14:11;10.70;;;5.70;;
39176;SDS011;24904;52.208;21.192;2023-05-02T18:19:14;13.60;;;6.20;;
39176;SDS011;24904;52.208;21.192;2023-05-02T18:24:17;13.80;;;6.00;;
39176;SDS011;24904;52.208;21.192;2023-05-02T18:29:20;17.10;;;7.60;;
39176;SDS011;24904;52.208;21.192;2023-05-02T18:34:23;18.70;;;8.80;;
39176;SDS011;24904;52.208;21.192;2023-05-02T18:39:26;13.00;;;7.80;;
39176;SDS011;24904;52.208;21.192;2023-05-02T18:44:31;11.50;;;7.00;;
39176;SDS011;24904;52.208;21.192;2023-05-02T18:49:34;17.00;;;8.70;;
39176;SDS011;24904;52.208;21.192;2023-05-02T18:54:37;10.90;;;7.60;;
39176;SDS011;24904;52.208;21.192;2023-05-02T18:59:40;12.40;;;7.90;;
39176;SDS011;24904;52.208;21.192;2023-05-02T19:04:43;15.60;;;8.40;;
39176;SDS011;24904;52.208;21.192;2023-05-02T19:09:46;15.90;;;8.80;;
39176;SDS011;24904;52.208;21.192;2023-05-02T19:14:49;14.50;;;8.80;;
39176;SDS011;24904;52.208;21.192;2023-05-02T19:19:52;13.00;;;8.00;;
39176;SDS011;24904;52.208;21.192;2023-05-02T19:24:55;15.90;;;8.00;;
39176;SDS011;24904;52.208;21.192;2023-05-02T19:29:58;11.60;;;7.50;;
39176;SDS011;24904;52.208;21.192;2023-05-02T19:35:01;16.50;;;8.10;;
39176;SDS011;24904;52.208;21.192;2023-05-02T19:40:05;12.50;;;7.50;;
39176;SDS011;24904;52.208;21.192;2023-05-02T19:45:11;19.10;;;7.50;;
39176;SDS011;24904;52.208;21.192;2023-05-02T19:50:14;15.80;;;6.30;;
39176;SDS011;24904;52.208;21.192;2023-05-02T19:55:17;12.40;;;6.50;;
39176;SDS011;24904;52.208;21.192;2023-05-02T20:00:21;15.20;;;6.80;;
39176;SDS011;24904;52.208;21.192;2023-05-02T20:05:24;14.90;;;6.50;;
39176;SDS011;24904;52.208;21.192;2023-05-02T20:10:27;12.60;;;6.20;;
39176;SDS011;24904;52.208;21.192;2023-05-02T20:15:30;10.30;;;5.90;;
39176;SDS011;24904;52.208;21.192;2023-05-02T20:20:33;12.40;;;6.10;;
39176;SDS011;24904;52.208;21.192;2023-05-02T20:25:36;13.30;;;6.00;;
39176;SDS011;24904;52.208;21.192;2023-05-02T20:30:39;13.70;;;6.70;;
39176;SDS011;24904;52.208;21.192;2023-05-02T20:35:43;11.00;;;6.80;;
39176;SDS011;24904;52.208;21.192;2023-05-02T20:40:53;11.40;;;6.30;;
39176;SDS011;24904;52.208;21.192;2023-05-02T20:45:57;12.40;;;6.30;;
39176;SDS011;24904;52.208;21.192;2023-05-02T20:51:11;20.70;;;6.90;;
39176;SDS011;24904;52.208;21.192;2023-05-02T20:56:14;13.00;;;6.20;;
39176;SDS011;24904;52.208;21.192;2023-05-02T21:01:17;11.10;;;6.40;;
39176;SDS011;24904;52.208;21.192;2023-05-02T21:06:20;9.50;;;6.30;;
39176;SDS011;24904;52.208;21.192;2023-05-02T21:11:23;11.70;;;6.30;;
39176;SDS011;24904;52.208;21.192;2023-05-02T21:16:26;13.10;;;6.20;;
39176;SDS011;24904;52.208;21.192;2023-05-02T21:21:30;8.90;;;6.00;;
39176;SDS011;24904;52.208;21.192;2023-05-02T21:26:33;13.10;;;6.70;;
39176;SDS011;24904;52.208;21.192;2023-05-02T21:31:36;11.40;;;5.50;;
39176;SDS011;24904;52.208;21.192;2023-05-02T21:36:39;10.20;;;6.00;;
39176;SDS011;24904;52.208;21.192;2023-05-02T21:41:43;8.30;;;5.00;;
39176;SDS011;24904;52.208;21.192;2023-05-02T21:46:46;10.10;;;4.90;;
39176;SDS011;24904;52.208;21.192;2023-05-02T21:51:50;8.20;;;4.60;;
39176;SDS011;24904;52.208;21.192;2023-05-02T21:56:53;6.20;;;3.30;;
39176;SDS011;24904;52.208;21.192;2023-05-02T22:01:56;5.50;;;3.30;;
39176;SDS011;24904;52.208;21.192;2023-05-02T22:06:59;9.30;;;3.20;;
39176;SDS011;24904;52.208;21.192;2023-05-02T22:12:02;5.30;;;3.00;;
39176;SDS011;24904;52.208;21.192;2023-05-02T22:17:06;7.00;;;3.20;;
39176;SDS011;24904;52.208;21.192;2023-05-02T22:22:09;10.10;;;3.40;;
39176;SDS011;24904;52.208;21.192;2023-05-02T22:27:12;8.70;;;2.90;;
39176;SDS011;24904;52.208;21.192;2023-05-02T22:32:15;6.60;;;3.30;;
39176;SDS011;24904;52.208;21.192;2023-05-02T22:37:18;11.80;;;4.00;;
39176;SDS011;24904;52.208;21.192;2023-05-02T22:42:22;7.50;;;3.50;;
39176;SDS011;24904;52.208;21.192;2023-05-02T22:47:25;7.50;;;2.80;;
39176;SDS011;24904;52.208;21.192;2023-05-02T22:52:29;6.70;;;3.00;;
39176;SDS011;24904;52.208;21.192;2023-05-02T22:57:37;7.70;;;3.60;;
39176;SDS011;24904;52.208;21.192;2023-05-02T23:02:41;9.50;;;3.40;;
39176;SDS011;24904;52.208;21.192;2023-05-02T23:07:44;8.80;;;3.10;;
39176;SDS011;24904;52.208;21.192;2023-05-02T23:12:47;6.90;;;3.00;;
39176;SDS011;24904;52.208;21.192;2023-05-02T23:17:50;6.20;;;2.70;;
39176;SDS011;24904;52.208;21.192;2023-05-02T23:22:53;7.00;;;2.90;;
39176;SDS011;24904;52.208;21.192;2023-05-02T23:27:56;7.50;;;3.20;;
39176;SDS011;24904;52.208;21.192;2023-05-02T23:32:59;7.60;;;2.80;;
39176;SDS011;24904;52.208;21.192;2023-05-02T23:38:04;8.00;;;3.30;;
39176;SDS011;24904;52.208;21.192;2023-05-02T23:43:07;6.50;;;3.00;;
39176;SDS011;24904;52.208;21.192;2023-05-02T23:48:11;7.10;;;2.80;;
39176;SDS011;24904;52.208;21.192;2023-05-02T23:53:14;8.90;;;3.50;;
39176;SDS011;24904;52.208;21.192;2023-05-02T23:58:17;8.70;;;3.30;;
